Time;durP1;ratioP1;P1;durP2;ratioP2;P2;SDS_P1;SDS_P2;PMS_P1;PMS_P2;Temp;Humidity;BMP_temperature;BMP_pressure;BME280_temperature;BME280_humidity;BME280_pressure;Samples;Min_cycle;Max_cycle;Signal;HPM_P1;HPM_P2
2022/01/19 00:00:59;;;;;;;;;;;;;;;2.47;100.00;103318.38;5050905;28;19996;-74
2022/01/19 00:03:24;;;;;;;;;;;;;;;2.36;100.00;103303.69;5032587;28;20066;-74
2022/01/19 00:05:49;;;;;;;;;;;;;;;2.24;100.00;103303.38;5072625;28;19963;-74
2022/01/19 00:08:18;;;;;;;;;;;;;;;2.13;100.00;103298.88;5057774;28;19917;-75
2022/01/19 00:10:44;;;;;;;;;;;;;;;2.02;100.00;103287.66;5043533;28;20366;-75
2022/01/19 00:13:10;;;;;;;;;;;;;;;1.93;100.00;103289.22;5051846;28;20380;-76
2022/01/19 00:15:38;;;;;;;;;;;;;;;1.85;100.00;103292.66;5052070;28;19925;-75
2022/01/19 00:18:14;;;;;;;;;;;;;;;1.76;100.00;103299.28;5056545;28;19916;-75
2022/01/19 00:20:39;;;;;;;;;;;;;;;1.68;100.00;103301.06;5052297;28;19924;-74
2022/01/19 00:23:05;;;;;;;;;;;;;;;1.59;100.00;103295.97;5057467;28;19942;-74
2022/01/19 00:25:31;;;;;;;;;;;;;;;1.51;100.00;103291.72;5052027;28;19924;-75
2022/01/19 00:27:56;;;;;;;;;;;;;;;1.45;100.00;103282.56;5055064;28;19978;-75
2022/01/19 00:30:22;;;;;;;;;;;;;;;1.41;100.00;103263.63;5083176;28;19934;-75
2022/01/19 00:32:47;;;;;;;;;;;;;;;1.36;100.00;103251.22;5058974;28;19947;-75
2022/01/19 00:35:13;;;;;;;;;;;;;;;1.31;100.00;103230.47;5082270;28;19974;-75
2022/01/19 00:37:42;;;;;;;;;;;;;;;1.22;100.00;103212.69;5053064;28;20373;-75
2022/01/19 00:40:09;;;;;;;;;;;;;;;1.17;100.00;103206.25;5069666;28;19973;-75
2022/01/19 00:42:34;;;;;;;;;;;;;;;1.14;100.00;103205.91;5055422;28;19924;-75
2022/01/19 00:45:00;;;;;;;;;;;;;;;1.08;100.00;103211.25;5066901;28;19939;-75
2022/01/19 00:47:25;;;;;;;;;;;;;;;1.03;100.00;103214.97;5055825;28;19978;-75
2022/01/19 00:49:51;;;;;;;;;;;;;;;0.99;100.00;103228.03;5075304;28;20308;-75
2022/01/19 00:52:16;;;;;;;;;;;;;;;0.94;100.00;103236.78;5048771;28;20303;-75
2022/01/19 00:54:42;;;;;;;;;;;;;;;0.90;100.00;103236.31;5077804;28;20373;-75
2022/01/19 00:57:07;;;;;;;;;;;;;;;0.87;100.00;103239.41;5038954;28;19931;-75
2022/01/19 00:59:33;;;;;;;;;;;;;;;0.84;100.00;103239.09;5052837;28;19927;-75
2022/01/19 01:01:59;;;;;;;;;;;;;;;0.82;100.00;103247.28;5054196;28;19919;-74
2022/01/19 01:04:24;;;;;;;;;;;;;;;0.80;100.00;103237.88;5067476;28;20505;-74
2022/01/19 01:06:49;;;;;;;;;;;;;;;0.82;100.00;103229.53;5033627;28;19997;-75
2022/01/19 01:09:14;;;;;;;;;;;;;;;0.84;100.00;103220.47;5036618;28;19927;-75
2022/01/19 01:11:48;;;;;;;;;;;;;;;0.85;100.00;103200.38;5051171;28;19916;-74
2022/01/19 01:17:09;;;;;;;;;;;;;;;0.86;100.00;103188.63;5058905;28;19963;-74
2022/01/19 01:19:27;;;;;;;;;;;;;;;0.86;100.00;103171.78;5067415;28;19959;-74
2022/01/19 01:21:52;;;;;;;;;;;;;;;0.86;100.00;103154.06;5063309;28;19959;-74
2022/01/19 01:24:17;;;;;;;;;;;;;;;0.85;100.00;103157.31;5035235;28;19959;-75
2022/01/19 01:26:43;;;;;;;;;;;;;;;0.84;100.00;103152.97;5051736;28;20388;-75
2022/01/19 01:29:08;;;;;;;;;;;;;;;0.91;100.00;103147.81;5050769;28;19928;-75
2022/01/19 01:31:33;;;;;;;;;;;;;;;0.96;100.00;103133.97;5067076;28;20408;-74
2022/01/19 01:33:59;;;;;;;;;;;;;;;0.99;100.00;103126.69;5048190;28;19931;-74
2022/01/19 01:36:24;;;;;;;;;;;;;;;1.02;100.00;103116.88;5067521;28;19927;-74
2022/01/19 01:38:49;;;;;;;;;;;;;;;1.05;100.00;103099.47;5058625;28;19929;-74
2022/01/19 01:41:15;;;;;;;;;;;;;;;1.11;100.00;103083.97;5069604;28;19928;-74
2022/01/19 01:43:41;;;;;;;;;;;;;;;1.14;100.00;103075.78;5053715;28;19920;-74
2022/01/19 01:46:11;;;;;;;;;;;;;;;1.10;100.00;103076.25;5067082;28;19985;-75
2022/01/19 01:48:42;;;;;;;;;;;;;;;1.08;100.00;103083.66;5052683;28;19935;-75
2022/01/19 01:53:55;;;;;;;;;;;;;;;0.99;100.00;103111.50;5057291;28;20403;-74
2022/01/19 01:56:20;;;;;;;;;;;;;;;0.90;100.00;103104.59;5054650;28;19946;-74
2022/01/19 01:58:46;;;;;;;;;;;;;;;0.88;100.00;103104.44;5056938;28;19924;-75
2022/01/19 02:01:12;;;;;;;;;;;;;;;0.88;100.00;103103.53;5052938;28;20348;-75
2022/01/19 02:03:40;;;;;;;;;;;;;;;0.84;100.00;103111.56;5049809;28;20019;-74
2022/01/19 02:06:27;;;;;;;;;;;;;;;0.77;100.00;103104.97;5049164;28;19917;-74
2022/01/19 02:09:10;;;;;;;;;;;;;;;0.70;100.00;103105.97;5067170;28;19923;-74
2022/01/19 02:22:35;;;;;;;;;;;;;;;0.60;100.00;103047.50;5066771;28;20442;-75
2022/01/19 02:25:03;;;;;;;;;;;;;;;0.59;100.00;103042.31;5067110;28;20345;-74
2022/01/19 02:41:13;;;;;;;;;;;;;;;0.18;100.00;103006.00;5017214;28;20188;-74
2022/01/19 02:43:38;;;;;;;;;;;;;;;0.11;100.00;103014.59;5046680;28;19920;-74
2022/01/19 02:49:14;;;;;;;;;;;;;;;-0.04;100.00;103007.97;5049528;28;19963;-75
2022/01/19 02:51:40;;;;;;;;;;;;;;;-0.09;100.00;103004.94;5066048;28;19962;-75
2022/01/19 02:54:05;;;;;;;;;;;;;;;-0.13;100.00;102982.59;5048433;28;19924;-74
2022/01/19 02:56:34;;;;;;;;;;;;;;;-0.14;100.00;102969.78;5051666;28;19920;-75
2022/01/19 02:59:12;;;;;;;;;;;;;;;-0.13;100.00;102964.88;5070184;28;19966;-74
2022/01/19 03:10:09;;;;;;;;;;;;;;;-0.09;100.00;102918.97;4978397;28;19930;-74
2022/01/19 03:12:35;;;;;;;;;;;;;;;-0.10;100.00;102917.19;5029778;28;19925;-74
2022/01/19 03:15:01;;;;;;;;;;;;;;;-0.19;100.00;102911.16;5064622;28;19924;-74
2022/01/19 03:17:26;;;;;;;;;;;;;;;-0.27;100.00;102917.94;5067561;28;19970;-74
2022/01/19 03:19:51;;;;;;;;;;;;;;;-0.31;100.00;102909.88;5052176;28;19931;-74
2022/01/19 03:22:20;;;;;;;;;;;;;;;-0.36;100.00;102917.00;5077574;28;19921;-74
2022/01/19 03:24:50;;;;;;;;;;;;;;;-0.43;100.00;102911.13;5055797;28;19920;-74
2022/01/19 03:27:16;;;;;;;;;;;;;;;-0.49;100.00;102915.53;5058565;28;19947;-74
2022/01/19 03:29:41;;;;;;;;;;;;;;;-0.56;100.00;102904.78;5070974;28;20373;-75
2022/01/19 03:32:07;;;;;;;;;;;;;;;-0.61;100.00;102905.03;5042168;28;19928;-74
2022/01/19 03:34:32;;;;;;;;;;;;;;;-0.64;100.00;102908.16;5070915;28;19939;-74
2022/01/19 03:36:57;;;;;;;;;;;;;;;-0.66;100.00;102909.63;5051293;28;19932;-74
2022/01/19 03:39:22;;;;;;;;;;;;;;;-0.67;100.00;102910.34;5071335;28;19920;-74
2022/01/19 03:41:48;;;;;;;;;;;;;;;-0.70;100.00;102896.50;5070924;28;19921;-74
2022/01/19 03:44:13;;;;;;;;;;;;;;;-0.72;100.00;102896.34;5055776;28;19931;-75
2022/01/19 03:46:53;;;;;;;;;;;;;;;-0.73;100.00;102879.38;5072758;28;19920;-75
2022/01/19 03:49:24;;;;;;;;;;;;;;;-0.75;100.00;102873.28;5054746;28;20018;-74
2022/01/19 03:51:49;;;;;;;;;;;;;;;-0.77;100.00;102866.28;5056201;28;19951;-75
2022/01/19 03:54:15;;;;;;;;;;;;;;;-0.78;100.00;102867.03;5054019;28;19964;-75
2022/01/19 03:56:40;;;;;;;;;;;;;;;-0.83;100.00;102864.00;5051289;28;19950;-75
2022/01/19 03:59:05;;;;;;;;;;;;;;;-0.85;100.00;102858.81;5069456;28;20419;-74
2022/01/19 04:01:30;;;;;;;;;;;;;;;-0.89;100.00;102858.31;5038650;28;19927;-74
2022/01/19 04:09:28;;;;;;;;;;;;;;;-0.88;100.00;102839.91;5046594;28;19931;-74
2022/01/19 04:11:54;;;;;;;;;;;;;;;-0.87;100.00;102834.09;5053637;28;19927;-74
2022/01/19 04:14:22;;;;;;;;;;;;;;;-0.90;100.00;102837.22;5036985;28;20298;-74
2022/01/19 04:16:48;;;;;;;;;;;;;;;-0.92;100.00;102848.75;5038880;28;19927;-75
2022/01/19 04:21:42;;;;;;;;;;;;;;;-0.96;100.00;102856.78;5076374;28;19990;-76
2022/01/19 04:24:07;;;;;;;;;;;;;;;-0.99;100.00;102847.97;5070898;28;19921;-75
2022/01/19 04:26:32;;;;;;;;;;;;;;;-1.01;100.00;102849.44;5035234;28;19932;-74
2022/01/19 04:28:58;;;;;;;;;;;;;;;-0.98;100.00;102850.63;5040004;28;19931;-74
2022/01/19 04:31:23;;;;;;;;;;;;;;;-0.95;100.00;102845.94;5070370;28;19928;-75
2022/01/19 04:33:49;;;;;;;;;;;;;;;-0.97;100.00;102851.53;5056872;28;19920;-74
2022/01/19 04:36:46;;;;;;;;;;;;;;;-0.98;100.00;102853.16;5049711;28;20293;-74
2022/01/19 04:44:01;;;;;;;;;;;;;;;-1.00;100.00;102843.66;5045553;28;19927;-74
2022/01/19 05:04:20;;;;;;;;;;;;;;;-0.85;100.00;102815.88;5041263;28;19927;-74
2022/01/19 05:06:50;;;;;;;;;;;;;;;-0.52;100.00;102811.63;5049636;28;20369;-74
2022/01/19 05:14:43;;;;;;;;;;;;;;;-0.17;100.00;102817.78;5050010;28;20396;-75
2022/01/19 05:17:08;;;;;;;;;;;;;;;-0.15;100.00;102827.31;5045324;28;19921;-74
2022/01/19 05:19:34;;;;;;;;;;;;;;;-0.15;100.00;102822.25;5046316;28;20074;-74
2022/01/19 05:21:59;;;;;;;;;;;;;;;-0.12;100.00;102826.69;5052395;28;19931;-74
2022/01/19 05:24:24;;;;;;;;;;;;;;;-0.13;100.00;102823.28;5046397;28;19927;-74
2022/01/19 05:26:51;;;;;;;;;;;;;;;-0.12;100.00;102827.63;5047226;28;19929;-74
2022/01/19 05:29:17;;;;;;;;;;;;;;;-0.10;100.00;102830.31;5049990;28;19979;-74
2022/01/19 05:31:42;;;;;;;;;;;;;;;-0.08;100.00;102824.66;5073637;28;19925;-76
2022/01/19 05:34:07;;;;;;;;;;;;;;;-0.01;100.00;102816.06;5052519;28;20413;-74
2022/01/19 05:36:33;;;;;;;;;;;;;;;0.06;100.00;102818.50;5047475;28;19920;-74
2022/01/19 05:39:00;;;;;;;;;;;;;;;0.11;100.00;102811.34;5050659;28;20270;-75
2022/01/19 05:41:25;;;;;;;;;;;;;;;0.11;100.00;102812.22;5047524;28;20373;-74
2022/01/19 05:43:51;;;;;;;;;;;;;;;0.14;100.00;102806.59;5047222;28;19921;-73
2022/01/19 05:46:16;;;;;;;;;;;;;;;0.18;100.00;102794.44;5031835;28;19931;-74
2022/01/19 05:48:41;;;;;;;;;;;;;;;0.19;100.00;102798.75;5049976;28;19944;-74
2022/01/19 05:51:06;;;;;;;;;;;;;;;0.23;100.00;102799.91;5027462;28;19960;-74
2022/01/19 05:53:32;;;;;;;;;;;;;;;0.26;100.00;102802.78;5048473;28;20348;-74
2022/01/19 05:55:57;;;;;;;;;;;;;;;0.23;100.00;102798.28;5045244;28;20015;-74
2022/01/19 05:58:22;;;;;;;;;;;;;;;0.28;100.00;102801.28;5050201;28;19920;-74
2022/01/19 06:00:48;;;;;;;;;;;;;;;0.25;100.00;102801.00;5034559;28;19928;-75
2022/01/19 06:03:13;;;;;;;;;;;;;;;0.35;100.00;102803.69;5043412;28;20904;-75
2022/01/19 06:05:38;;;;;;;;;;;;;;;0.39;100.00;102800.72;5029357;28;20380;-75
2022/01/19 06:10:48;;;;;;;;;;;;;;;0.38;100.00;102785.41;5051924;28;19960;-75
2022/01/19 06:13:14;;;;;;;;;;;;;;;0.38;100.00;102791.34;5044021;28;19975;-75
2022/01/19 06:15:40;;;;;;;;;;;;;;;0.42;100.00;102787.47;5047079;28;19956;-74
2022/01/19 06:18:05;;;;;;;;;;;;;;;0.40;100.00;102796.56;5052262;28;19990;-73
2022/01/19 06:20:30;;;;;;;;;;;;;;;0.41;100.00;102795.81;5043892;28;19960;-74
2022/01/19 06:22:55;;;;;;;;;;;;;;;0.44;100.00;102784.38;5031166;28;19964;-74
2022/01/19 06:25:21;;;;;;;;;;;;;;;0.43;100.00;102775.00;5052047;28;19928;-75
2022/01/19 06:27:46;;;;;;;;;;;;;;;0.54;100.00;102771.84;5068139;28;20301;-74
2022/01/19 06:30:12;;;;;;;;;;;;;;;0.52;100.00;102764.88;5048488;28;20037;-74
2022/01/19 06:32:37;;;;;;;;;;;;;;;0.51;100.00;102763.09;5050395;28;20301;-72
2022/01/19 06:35:03;;;;;;;;;;;;;;;0.48;100.00;102753.53;5052272;28;19916;-74
2022/01/19 06:37:28;;;;;;;;;;;;;;;0.49;100.00;102752.81;5056837;28;19974;-73
2022/01/19 06:39:54;;;;;;;;;;;;;;;0.48;100.00;102751.00;5056101;28;19925;-73
2022/01/19 06:42:19;;;;;;;;;;;;;;;0.54;100.00;102745.66;5062975;28;19932;-72
2022/01/19 06:44:44;;;;;;;;;;;;;;;0.52;100.00;102745.50;5069612;28;19974;-73
2022/01/19 06:47:09;;;;;;;;;;;;;;;0.60;100.00;102738.66;5071306;28;20408;-73
2022/01/19 06:49:35;;;;;;;;;;;;;;;0.54;100.00;102740.59;5070350;28;20063;-73
2022/01/19 06:52:01;;;;;;;;;;;;;;;0.55;100.00;102737.34;5068520;28;19966;-73
2022/01/19 06:54:26;;;;;;;;;;;;;;;0.56;100.00;102734.06;5051157;28;19923;-73
2022/01/19 06:56:52;;;;;;;;;;;;;;;0.54;100.00;102722.88;5065142;28;19929;-73
2022/01/19 06:59:17;;;;;;;;;;;;;;;0.60;100.00;102726.00;5035316;28;20066;-73
2022/01/19 07:01:42;;;;;;;;;;;;;;;0.60;100.00;102720.94;5069708;28;19943;-73
2022/01/19 07:04:11;;;;;;;;;;;;;;;0.62;100.00;102716.03;5068108;28;20301;-73
2022/01/19 07:06:36;;;;;;;;;;;;;;;0.63;100.00;102713.66;5048953;28;20436;-73
2022/01/19 07:09:01;;;;;;;;;;;;;;;0.68;100.00;102725.13;5055009;28;20050;-73
2022/01/19 07:11:27;;;;;;;;;;;;;;;0.69;100.00;102726.00;5066876;28;19917;-73
2022/01/19 07:13:52;;;;;;;;;;;;;;;0.61;100.00;102725.28;5036624;28;20429;-73
2022/01/19 07:16:17;;;;;;;;;;;;;;;0.68;100.00;102715.00;5066089;28;19924;-73
2022/01/19 07:18:43;;;;;;;;;;;;;;;0.76;100.00;102715.72;5064877;28;19924;-73
2022/01/19 07:21:08;;;;;;;;;;;;;;;0.69;100.00;102713.34;5053008;28;19920;-73
2022/01/19 07:23:33;;;;;;;;;;;;;;;0.75;100.00;102707.25;5065536;28;19994;-72
2022/01/19 07:25:58;;;;;;;;;;;;;;;0.77;100.00;102713.34;5069737;28;19928;-73
2022/01/19 07:28:24;;;;;;;;;;;;;;;0.75;100.00;102701.28;5029457;28;20023;-73
2022/01/19 07:30:49;;;;;;;;;;;;;;;0.77;100.00;102703.22;5052695;28;19928;-73
2022/01/19 07:33:14;;;;;;;;;;;;;;;0.73;100.00;102703.69;5032720;28;19969;-73
2022/01/19 07:35:39;;;;;;;;;;;;;;;0.71;100.00;102694.13;5043124;28;19921;-73
2022/01/19 07:38:05;;;;;;;;;;;;;;;0.72;100.00;102701.88;5030008;28;20346;-73
2022/01/19 07:40:30;;;;;;;;;;;;;;;0.80;100.00;102695.94;5046204;28;19928;-73
2022/01/19 07:42:55;;;;;;;;;;;;;;;0.84;100.00;102698.75;5050228;28;20014;-73
2022/01/19 07:45:21;;;;;;;;;;;;;;;0.94;100.00;102694.72;5046852;28;20055;-73
2022/01/19 07:47:46;;;;;;;;;;;;;;;0.82;100.00;102693.53;5052398;28;19917;-73
2022/01/19 07:50:12;;;;;;;;;;;;;;;0.83;100.00;102702.03;5055819;28;19928;-73
2022/01/19 07:52:37;;;;;;;;;;;;;;;0.86;100.00;102695.63;5047548;28;19921;-73
2022/01/19 07:55:02;;;;;;;;;;;;;;;0.91;100.00;102690.97;5049396;28;19956;-72
2022/01/19 07:57:28;;;;;;;;;;;;;;;0.93;100.00;102682.78;5048405;28;19927;-73
2022/01/19 07:59:53;;;;;;;;;;;;;;;0.95;100.00;102693.06;5047283;28;19971;-73
2022/01/19 08:02:19;;;;;;;;;;;;;;;0.95;100.00;102690.53;5054731;28;19912;-73
2022/01/19 08:04:44;;;;;;;;;;;;;;;0.96;100.00;102688.13;5047688;28;20304;-74
2022/01/19 08:07:09;;;;;;;;;;;;;;;0.95;100.00;102685.47;5056817;28;19921;-74
2022/01/19 08:09:35;;;;;;;;;;;;;;;1.00;100.00;102685.16;5051705;28;19921;-73
2022/01/19 08:12:00;;;;;;;;;;;;;;;1.04;100.00;102672.06;5047577;28;19974;-73
2022/01/19 08:14:26;;;;;;;;;;;;;;;1.05;100.00;102668.75;5053476;28;19936;-74
2022/01/19 08:16:54;;;;;;;;;;;;;;;1.15;100.00;102667.09;5053084;28;19927;-73
2022/01/19 08:19:19;;;;;;;;;;;;;;;1.11;100.00;102665.91;5045646;28;19916;-74
2022/01/19 08:21:45;;;;;;;;;;;;;;;1.19;100.00;102664.09;5053904;28;20008;-74
2022/01/19 08:24:10;;;;;;;;;;;;;;;1.10;100.00;102668.31;5035086;28;19920;-74
2022/01/19 08:26:35;;;;;;;;;;;;;;;1.09;100.00;102664.84;5051857;28;19921;-75
2022/01/19 08:29:00;;;;;;;;;;;;;;;1.13;100.00;102664.41;5059048;28;20010;-74
2022/01/19 08:31:26;;;;;;;;;;;;;;;1.13;100.00;102663.53;5072494;28;20365;-73
2022/01/19 08:33:51;;;;;;;;;;;;;;;1.14;100.00;102668.72;5082343;28;19924;-74
2022/01/19 08:36:17;;;;;;;;;;;;;;;1.16;100.00;102668.91;5069240;28;19921;-73
2022/01/19 08:38:42;;;;;;;;;;;;;;;1.16;100.00;102666.38;5037059;28;20378;-74
2022/01/19 08:41:08;;;;;;;;;;;;;;;1.22;100.00;102656.81;5082099;28;20361;-74
2022/01/19 08:43:33;;;;;;;;;;;;;;;1.21;100.00;102652.47;5070093;28;19917;-74
2022/01/19 08:45:59;;;;;;;;;;;;;;;1.23;100.00;102648.44;5048275;28;19929;-74
2022/01/19 08:48:25;;;;;;;;;;;;;;;1.25;100.00;102645.28;5033299;28;19932;-73
2022/01/19 08:50:50;;;;;;;;;;;;;;;1.27;100.00;102632.75;5056253;28;20451;-73
2022/01/19 08:53:16;;;;;;;;;;;;;;;1.30;100.00;102636.50;5070745;28;19928;-73
2022/01/19 08:55:44;;;;;;;;;;;;;;;1.34;100.00;102632.59;5038898;28;20078;-73
2022/01/19 08:58:10;;;;;;;;;;;;;;;1.37;100.00;102630.34;5068045;28;19920;-73
2022/01/19 09:00:36;;;;;;;;;;;;;;;1.42;100.00;102626.59;5072468;28;20096;-72
2022/01/19 09:03:01;;;;;;;;;;;;;;;1.41;100.00;102632.41;5082077;28;20399;-75
2022/01/19 09:05:27;;;;;;;;;;;;;;;1.41;100.00;102626.47;5053693;28;20416;-73
2022/01/19 09:07:53;;;;;;;;;;;;;;;1.43;100.00;102622.41;5067699;28;20373;-73
2022/01/19 09:10:21;;;;;;;;;;;;;;;1.43;100.00;102623.31;5051682;28;20381;-73
2022/01/19 09:12:46;;;;;;;;;;;;;;;1.45;100.00;102618.38;5044247;28;19972;-74
2022/01/19 09:15:12;;;;;;;;;;;;;;;1.46;100.00;102612.59;5083461;28;20335;-74
2022/01/19 09:17:38;;;;;;;;;;;;;;;1.49;100.00;102612.84;5063565;28;19922;-75
2022/01/19 09:20:05;;;;;;;;;;;;;;;1.55;100.00;102609.22;5067658;28;19916;-74
2022/01/19 09:22:30;;;;;;;;;;;;;;;1.55;100.00;102609.22;5058990;28;19916;-73
2022/01/19 09:24:56;;;;;;;;;;;;;;;1.57;100.00;102615.31;5049978;28;19923;-71
2022/01/19 09:27:21;;;;;;;;;;;;;;;1.60;100.00;102608.00;5068198;28;20320;-72
2022/01/19 09:29:47;;;;;;;;;;;;;;;1.61;100.00;102599.66;5061515;28;19920;-71
2022/01/19 09:32:13;;;;;;;;;;;;;;;1.66;100.00;102606.78;5058565;28;20000;-71
2022/01/19 09:34:47;;;;;;;;;;;;;;;1.83;100.00;102594.00;5065635;28;20381;-72
2022/01/19 09:37:13;;;;;;;;;;;;;;;1.72;100.00;102587.97;5060088;28;19913;-71
2022/01/19 09:39:38;;;;;;;;;;;;;;;1.76;100.00;102584.97;5067059;28;19916;-72
2022/01/19 09:42:04;;;;;;;;;;;;;;;1.76;100.00;102579.88;5064713;28;20345;-73
2022/01/19 09:44:31;;;;;;;;;;;;;;;1.78;100.00;102574.94;5050734;28;19916;-72
2022/01/19 09:46:56;;;;;;;;;;;;;;;1.81;100.00;102573.56;5062392;28;20380;-72
2022/01/19 09:49:22;;;;;;;;;;;;;;;1.84;100.00;102560.28;5048727;28;19923;-73
2022/01/19 09:51:48;;;;;;;;;;;;;;;2.00;100.00;102560.91;5056091;28;19913;-72
2022/01/19 09:54:18;;;;;;;;;;;;;;;1.93;100.00;102553.47;5031385;28;20639;-72
2022/01/19 09:56:44;;;;;;;;;;;;;;;1.99;100.00;102550.59;5037114;28;19977;-72
2022/01/19 09:59:12;;;;;;;;;;;;;;;2.01;100.00;102556.72;5059322;28;19916;-73
2022/01/19 10:01:47;;;;;;;;;;;;;;;2.05;100.00;102558.75;5079785;28;19971;-73
2022/01/19 10:04:17;;;;;;;;;;;;;;;2.11;100.00;102544.97;5064997;28;20017;-73
2022/01/19 10:06:42;;;;;;;;;;;;;;;2.14;100.00;102542.72;5049495;28;19923;-73
2022/01/19 10:09:08;;;;;;;;;;;;;;;2.17;100.00;102538.66;5065445;28;19916;-73
2022/01/19 10:17:01;;;;;;;;;;;;;;;2.34;100.00;102538.50;5054697;28;19927;-72
2022/01/19 10:19:33;;;;;;;;;;;;;;;2.26;100.00;102531.88;5058474;28;20011;-73
2022/01/19 10:22:02;;;;;;;;;;;;;;;2.31;100.00;102535.69;5057639;28;19919;-73
2022/01/19 10:24:39;;;;;;;;;;;;;;;2.42;100.00;102522.28;5053961;28;20374;-73
2022/01/19 10:27:20;;;;;;;;;;;;;;;2.45;100.00;102530.16;5063167;28;19935;-73
2022/01/19 10:29:49;;;;;;;;;;;;;;;2.54;100.00;102520.81;5062421;28;20007;-73
2022/01/19 10:32:14;;;;;;;;;;;;;;;2.58;100.00;102521.97;5054408;28;20412;-73
2022/01/19 10:34:39;;;;;;;;;;;;;;;2.58;100.00;102515.22;5067993;28;19913;-73
2022/01/19 10:37:05;;;;;;;;;;;;;;;2.64;100.00;102515.75;5067174;28;20375;-73
2022/01/19 10:39:39;;;;;;;;;;;;;;;2.67;100.00;102508.44;5060837;28;19931;-73
2022/01/19 10:42:10;;;;;;;;;;;;;;;2.68;100.00;102502.59;5040531;28;20565;-72
2022/01/19 10:44:39;;;;;;;;;;;;;;;2.76;100.00;102504.88;5066356;28;19995;-72
2022/01/19 10:47:05;;;;;;;;;;;;;;;2.74;100.00;102506.41;5067186;28;19928;-72
2022/01/19 10:49:46;;;;;;;;;;;;;;;2.75;100.00;102503.09;5042499;28;19917;-73
2022/01/19 10:52:23;;;;;;;;;;;;;;;2.79;100.00;102497.50;5058717;28;20015;-73
2022/01/19 10:54:49;;;;;;;;;;;;;;;2.80;100.00;102504.41;5045508;28;20368;-72
2022/01/19 10:57:15;;;;;;;;;;;;;;;2.81;100.00;102496.00;5058310;28;19960;-72
2022/01/19 10:59:40;;;;;;;;;;;;;;;2.86;100.00;102482.94;5044357;28;19916;-72
2022/01/19 11:02:05;;;;;;;;;;;;;;;2.87;100.00;102479.63;5034713;28;19920;-72
2022/01/19 11:04:37;;;;;;;;;;;;;;;2.90;100.00;102473.91;5056330;28;19975;-73
2022/01/19 11:07:04;;;;;;;;;;;;;;;2.91;100.00;102480.75;5063303;28;20374;-72
2022/01/19 11:09:31;;;;;;;;;;;;;;;2.93;100.00;102474.19;5058548;28;19959;-73
2022/01/19 11:12:06;;;;;;;;;;;;;;;2.92;100.00;102465.66;5062581;28;19920;-72
2022/01/19 11:14:31;;;;;;;;;;;;;;;2.98;100.00;102460.22;5058525;28;19999;-72
2022/01/19 11:16:57;;;;;;;;;;;;;;;2.96;100.00;102460.06;5060993;28;20016;-72
2022/01/19 11:19:23;;;;;;;;;;;;;;;3.02;100.00;102459.69;5072042;28;20046;-72
2022/01/19 11:22:02;;;;;;;;;;;;;;;2.96;100.00;102457.53;5056756;28;20408;-72
2022/01/19 11:24:31;;;;;;;;;;;;;;;3.03;100.00;102445.34;5061089;28;19917;-72
2022/01/19 11:26:57;;;;;;;;;;;;;;;3.00;100.00;102451.06;5058746;28;20015;-72
2022/01/19 11:29:23;;;;;;;;;;;;;;;3.14;100.00;102439.50;5049872;28;20409;-73
2022/01/19 11:31:50;;;;;;;;;;;;;;;3.07;100.00;102427.94;5063642;28;19912;-72
2022/01/19 11:34:35;;;;;;;;;;;;;;;3.04;100.00;102421.72;5062748;28;19924;-73
2022/01/19 11:37:02;;;;;;;;;;;;;;;3.12;100.00;102410.53;5050951;28;19920;-72
2022/01/19 11:39:30;;;;;;;;;;;;;;;3.10;100.00;102414.59;5053569;28;19999;-72
2022/01/19 11:41:56;;;;;;;;;;;;;;;3.04;100.00;102419.19;5053432;28;19916;-72
2022/01/19 11:44:27;;;;;;;;;;;;;;;3.02;100.00;102408.88;5052264;28;20404;-72
2022/01/19 11:46:55;;;;;;;;;;;;;;;3.03;100.00;102403.00;5065072;28;20016;-73
2022/01/19 11:49:39;;;;;;;;;;;;;;;3.11;100.00;102396.03;5052880;28;20380;-72
2022/01/19 11:52:04;;;;;;;;;;;;;;;3.09;100.00;102385.72;5064349;28;20044;-72
2022/01/19 11:54:31;;;;;;;;;;;;;;;3.14;100.00;102376.84;5065682;28;19966;-72
2022/01/19 11:56:59;;;;;;;;;;;;;;;3.25;100.00;102382.81;5060117;28;20330;-72
2022/01/19 11:59:34;;;;;;;;;;;;;;;3.13;100.00;102371.63;5059675;28;20335;-73
2022/01/19 12:02:18;;;;;;;;;;;;;;;3.12;100.00;102365.66;5051653;28;19995;-72
2022/01/19 12:04:43;;;;;;;;;;;;;;;3.17;100.00;102374.56;5064652;28;19927;-72
2022/01/19 12:07:27;;;;;;;;;;;;;;;3.16;100.00;102366.81;5068520;28;19916;-73
2022/01/19 12:09:56;;;;;;;;;;;;;;;3.21;100.00;102355.34;5089599;28;19924;-72
2022/01/19 12:12:25;;;;;;;;;;;;;;;3.28;100.00;102337.31;5062248;28;20382;-72
2022/01/19 12:14:51;;;;;;;;;;;;;;;3.38;100.00;102341.47;5062873;28;20021;-73
2022/01/19 12:17:26;;;;;;;;;;;;;;;3.44;100.00;102326.69;5074696;28;20436;-73
2022/01/19 12:19:52;;;;;;;;;;;;;;;3.46;100.00;102328.63;5063433;28;20345;-73
2022/01/19 12:22:20;;;;;;;;;;;;;;;3.55;100.00;102333.53;5075056;28;19916;-72
2022/01/19 12:24:54;;;;;;;;;;;;;;;3.60;100.00;102322.06;5073913;28;19997;-72
2022/01/19 12:27:19;;;;;;;;;;;;;;;3.68;100.00;102310.84;5071169;28;19929;-73
2022/01/19 12:29:49;;;;;;;;;;;;;;;3.81;100.00;102309.25;5074309;28;19943;-73
2022/01/19 12:32:18;;;;;;;;;;;;;;;3.83;100.00;102306.06;5051810;28;19916;-73
2022/01/19 12:34:45;;;;;;;;;;;;;;;3.89;100.00;102306.56;5073374;28;20281;-73
2022/01/19 12:37:11;;;;;;;;;;;;;;;3.89;100.00;102308.22;5071046;28;20619;-72
2022/01/19 12:39:38;;;;;;;;;;;;;;;3.95;100.00;102301.94;5071733;28;20437;-73
2022/01/19 12:42:05;;;;;;;;;;;;;;;3.88;100.00;102301.31;5048909;28;20403;-72
2022/01/19 12:44:39;;;;;;;;;;;;;;;3.98;100.00;102288.56;5070265;28;20380;-73
2022/01/19 12:47:25;;;;;;;;;;;;;;;3.94;100.00;102279.81;5071886;28;19924;-72
2022/01/19 12:50:08;;;;;;;;;;;;;;;3.98;100.00;102281.81;5068905;28;19931;-73
2022/01/19 12:52:35;;;;;;;;;;;;;;;4.00;100.00;102275.19;5070515;28;20331;-72
2022/01/19 12:55:12;;;;;;;;;;;;;;;3.96;100.00;102277.38;5065834;28;20369;-72
2022/01/19 12:57:38;;;;;;;;;;;;;;;3.94;100.00;102274.72;5071971;28;20015;-73
2022/01/19 13:00:08;;;;;;;;;;;;;;;3.99;100.00;102272.50;5072677;28;20010;-73
2022/01/19 13:02:33;;;;;;;;;;;;;;;4.02;100.00;102270.22;5069440;28;19921;-73
2022/01/19 13:05:07;;;;;;;;;;;;;;;4.00;100.00;102259.91;5069584;28;19924;-73
2022/01/19 13:07:36;;;;;;;;;;;;;;;4.00;100.00;102254.84;5067740;28;20402;-72
2022/01/19 13:12:58;;;;;;;;;;;;;;;4.19;100.00;102243.50;5068939;28;20314;-72
2022/01/19 13:15:38;;;;;;;;;;;;;;;4.16;100.00;102244.13;5062382;28;19924;-72
2022/01/19 13:18:03;;;;;;;;;;;;;;;4.16;100.00;102239.03;5047528;28;19986;-72
2022/01/19 13:20:28;;;;;;;;;;;;;;;4.22;100.00;102236.97;5061512;28;19971;-72
2022/01/19 13:22:55;;;;;;;;;;;;;;;4.26;100.00;102230.47;5066796;28;20297;-72
2022/01/19 13:25:22;;;;;;;;;;;;;;;4.25;100.00;102231.22;5076458;28;19916;-72
2022/01/19 13:27:48;;;;;;;;;;;;;;;4.25;100.00;102227.03;5054613;28;19920;-72
2022/01/19 13:30:14;;;;;;;;;;;;;;;4.22;100.00;102225.91;5050841;28;19928;-73
2022/01/19 13:32:39;;;;;;;;;;;;;;;4.24;100.00;102217.59;5044034;28;20421;-72
2022/01/19 13:35:07;;;;;;;;;;;;;;;4.11;100.00;102207.25;5068842;28;20070;-72
2022/01/19 13:37:37;;;;;;;;;;;;;;;4.13;100.00;102198.09;5063506;28;21550;-72
2022/01/19 13:40:10;;;;;;;;;;;;;;;4.12;100.00;102196.31;5054142;28;19969;-72
2022/01/19 13:42:39;;;;;;;;;;;;;;;4.07;100.00;102191.66;5052025;28;19982;-72
2022/01/19 13:45:13;;;;;;;;;;;;;;;4.01;100.00;102187.88;5064700;28;19927;-72
2022/01/19 13:48:05;;;;;;;;;;;;;;;3.97;100.00;102183.31;5064511;28;20068;-72
2022/01/19 13:50:31;;;;;;;;;;;;;;;4.11;100.00;102170.75;5068136;28;19916;-71
2022/01/19 13:52:57;;;;;;;;;;;;;;;3.98;100.00;102171.47;5066224;28;19921;-71
2022/01/19 13:55:24;;;;;;;;;;;;;;;3.92;100.00;102177.00;5054698;28;19985;-72
2022/01/19 13:57:49;;;;;;;;;;;;;;;3.93;100.00;102172.78;5065582;28;20401;-72
2022/01/19 14:00:16;;;;;;;;;;;;;;;3.92;100.00;102176.09;5070215;28;19926;-72
2022/01/19 14:03:00;;;;;;;;;;;;;;;3.93;100.00;102178.75;5047525;28;19921;-73
2022/01/19 14:05:40;;;;;;;;;;;;;;;3.91;100.00;102165.03;5047464;28;20278;-72